sensor_id;sensor_type;location;lat;lon;timestamp;temperature;humidity
21582;DHT22;10952;50.836;4.348;2022-11-14T00:00:07;10.60;99.90
21582;DHT22;10952;50.836;4.348;2022-11-14T00:02:35;10.60;99.90
21582;DHT22;10952;50.836;4.348;2022-11-14T00:05:01;10.50;99.90
21582;DHT22;10952;50.836;4.348;2022-11-14T00:07:30;10.50;99.90
21582;DHT22;10952;50.836;4.348;2022-11-14T00:09:56;10.60;99.90
21582;DHT22;10952;50.836;4.348;2022-11-14T00:12:21;10.70;99.90
21582;DHT22;10952;50.836;4.348;2022-11-14T00:14:47;10.70;99.90
21582;DHT22;10952;50.836;4.348;2022-11-14T00:17:13;10.70;99.90
21582;DHT22;10952;50.836;4.348;2022-11-14T00:19:38;10.70;99.90
21582;DHT22;10952;50.836;4.348;2022-11-14T00:22:04;10.60;99.90
21582;DHT22;10952;50.836;4.348;2022-11-14T00:24:30;10.60;99.90
21582;DHT22;10952;50.836;4.348;2022-11-14T00:26:55;10.50;99.90
21582;DHT22;10952;50.836;4.348;2022-11-14T00:29:21;10.50;99.90
21582;DHT22;10952;50.836;4.348;2022-11-14T00:31:46;10.30;99.90
21582;DHT22;10952;50.836;4.348;2022-11-14T00:34:12;10.30;99.90
21582;DHT22;10952;50.836;4.348;2022-11-14T00:36:38;10.30;99.90
21582;DHT22;10952;50.836;4.348;2022-11-14T00:39:04;10.30;99.90
21582;DHT22;10952;50.836;4.348;2022-11-14T00:41:29;10.10;99.90
21582;DHT22;10952;50.836;4.348;2022-11-14T00:43:55;10.00;99.90
21582;DHT22;10952;50.836;4.348;2022-11-14T00:46:21;10.00;99.90
21582;DHT22;10952;50.836;4.348;2022-11-14T00:48:46;10.00;99.90
21582;DHT22;10952;50.836;4.348;2022-11-14T00:51:12;9.90;99.90
21582;DHT22;10952;50.836;4.348;2022-11-14T00:53:38;10.00;99.90
21582;DHT22;10952;50.836;4.348;2022-11-14T00:56:05;9.70;99.90
21582;DHT22;10952;50.836;4.348;2022-11-14T00:58:30;9.70;99.90
21582;DHT22;10952;50.836;4.348;2022-11-14T01:00:56;9.70;99.90
21582;DHT22;10952;50.836;4.348;2022-11-14T01:03:22;9.70;99.90
21582;DHT22;10952;50.836;4.348;2022-11-14T01:05:49;9.50;99.90
21582;DHT22;10952;50.836;4.348;2022-11-14T01:08:16;9.50;99.90
21582;DHT22;10952;50.836;4.348;2022-11-14T01:10:45;9.50;99.90
21582;DHT22;10952;50.836;4.348;2022-11-14T01:13:11;9.60;99.90
21582;DHT22;10952;50.836;4.348;2022-11-14T01:15:41;9.70;99.90
21582;DHT22;10952;50.836;4.348;2022-11-14T01:18:10;9.60;99.90
21582;DHT22;10952;50.836;4.348;2022-11-14T01:20:39;9.50;99.90
21582;DHT22;10952;50.836;4.348;2022-11-14T01:23:06;9.50;99.90
21582;DHT22;10952;50.836;4.348;2022-11-14T01:25:33;9.60;99.90
21582;DHT22;10952;50.836;4.348;2022-11-14T01:27:58;9.70;99.90
21582;DHT22;10952;50.836;4.348;2022-11-14T01:30:24;9.70;99.90
21582;DHT22;10952;50.836;4.348;2022-11-14T01:32:50;9.80;99.90
21582;DHT22;10952;50.836;4.348;2022-11-14T01:35:15;9.90;99.90
21582;DHT22;10952;50.836;4.348;2022-11-14T01:37:41;9.80;99.90
21582;DHT22;10952;50.836;4.348;2022-11-14T01:40:07;9.70;99.90
21582;DHT22;10952;50.836;4.348;2022-11-14T01:42:33;9.50;99.90
21582;DHT22;10952;50.836;4.348;2022-11-14T01:44:58;9.40;99.90
21582;DHT22;10952;50.836;4.348;2022-11-14T01:47:28;9.30;99.90
21582;DHT22;10952;50.836;4.348;2022-11-14T01:49:59;9.30;99.90
21582;DHT22;10952;50.836;4.348;2022-11-14T01:52:37;9.30;99.90
21582;DHT22;10952;50.836;4.348;2022-11-14T01:55:08;9.20;99.90
21582;DHT22;10952;50.836;4.348;2022-11-14T01:57:37;9.10;99.90
21582;DHT22;10952;50.836;4.348;2022-11-14T02:00:07;8.90;99.90
21582;DHT22;10952;50.836;4.348;2022-11-14T02:02:34;8.90;99.90
21582;DHT22;10952;50.836;4.348;2022-11-14T02:05:05;8.90;99.90
21582;DHT22;10952;50.836;4.348;2022-11-14T02:07:35;8.90;99.90
21582;DHT22;10952;50.836;4.348;2022-11-14T02:10:05;8.90;99.90
21582;DHT22;10952;50.836;4.348;2022-11-14T02:12:32;8.90;99.90
21582;DHT22;10952;50.836;4.348;2022-11-14T02:14:58;8.90;99.90
21582;DHT22;10952;50.836;4.348;2022-11-14T02:17:24;8.90;99.90
21582;DHT22;10952;50.836;4.348;2022-11-14T02:22:17;8.80;99.90
21582;DHT22;10952;50.836;4.348;2022-11-14T02:24:44;8.70;99.90
21582;DHT22;10952;50.836;4.348;2022-11-14T02:27:11;8.70;99.90
21582;DHT22;10952;50.836;4.348;2022-11-14T02:29:37;8.70;99.90
21582;DHT22;10952;50.836;4.348;2022-11-14T02:32:03;8.60;99.90
21582;DHT22;10952;50.836;4.348;2022-11-14T02:34:29;8.40;99.90
21582;DHT22;10952;50.836;4.348;2022-11-14T02:36:55;8.30;99.90
21582;DHT22;10952;50.836;4.348;2022-11-14T02:39:21;8.30;99.90
21582;DHT22;10952;50.836;4.348;2022-11-14T02:41:47;8.20;99.90
21582;DHT22;10952;50.836;4.348;2022-11-14T02:44:13;8.20;99.90
21582;DHT22;10952;50.836;4.348;2022-11-14T02:46:39;8.20;99.90
21582;DHT22;10952;50.836;4.348;2022-11-14T02:49:05;8.20;99.90
21582;DHT22;10952;50.836;4.348;2022-11-14T02:51:30;8.20;99.90
21582;DHT22;10952;50.836;4.348;2022-11-14T02:53:56;8.10;99.90
21582;DHT22;10952;50.836;4.348;2022-11-14T02:56:21;8.10;99.90
21582;DHT22;10952;50.836;4.348;2022-11-14T02:58:47;8.10;99.90
21582;DHT22;10952;50.836;4.348;2022-11-14T03:01:13;8.20;99.90
21582;DHT22;10952;50.836;4.348;2022-11-14T03:03:38;8.30;99.90
21582;DHT22;10952;50.836;4.348;2022-11-14T03:06:04;8.30;99.90
21582;DHT22;10952;50.836;4.348;2022-11-14T03:08:30;8.40;99.90
21582;DHT22;10952;50.836;4.348;2022-11-14T03:11:02;8.50;99.90
21582;DHT22;10952;50.836;4.348;2022-11-14T03:13:28;8.50;99.90
21582;DHT22;10952;50.836;4.348;2022-11-14T03:15:54;8.50;99.90
21582;DHT22;10952;50.836;4.348;2022-11-14T03:18:20;8.50;99.90
21582;DHT22;10952;50.836;4.348;2022-11-14T03:20:46;8.50;99.90
21582;DHT22;10952;50.836;4.348;2022-11-14T03:23:12;8.60;99.90
21582;DHT22;10952;50.836;4.348;2022-11-14T03:25:38;8.60;99.90
21582;DHT22;10952;50.836;4.348;2022-11-14T03:28:03;8.60;99.90
21582;DHT22;10952;50.836;4.348;2022-11-14T03:30:29;8.70;99.90
21582;DHT22;10952;50.836;4.348;2022-11-14T03:32:56;8.70;99.90
21582;DHT22;10952;50.836;4.348;2022-11-14T03:35:22;8.80;99.90
21582;DHT22;10952;50.836;4.348;2022-11-14T03:37:48;8.80;99.90
21582;DHT22;10952;50.836;4.348;2022-11-14T03:40:14;8.60;99.90
21582;DHT22;10952;50.836;4.348;2022-11-14T03:42:39;8.60;99.90
21582;DHT22;10952;50.836;4.348;2022-11-14T03:45:05;8.50;99.90
21582;DHT22;10952;50.836;4.348;2022-11-14T03:47:31;8.40;99.90
21582;DHT22;10952;50.836;4.348;2022-11-14T03:49:57;8.40;99.90
21582;DHT22;10952;50.836;4.348;2022-11-14T03:52:22;8.30;99.90
21582;DHT22;10952;50.836;4.348;2022-11-14T03:54:50;8.30;99.90
21582;DHT22;10952;50.836;4.348;2022-11-14T03:57:16;8.20;99.90
21582;DHT22;10952;50.836;4.348;2022-11-14T03:59:41;8.10;99.90
21582;DHT22;10952;50.836;4.348;2022-11-14T04:02:07;8.20;99.90
21582;DHT22;10952;50.836;4.348;2022-11-14T04:04:33;8.20;99.90
21582;DHT22;10952;50.836;4.348;2022-11-14T04:06:59;8.10;99.90
21582;DHT22;10952;50.836;4.348;2022-11-14T04:09:24;8.20;99.90
21582;DHT22;10952;50.836;4.348;2022-11-14T04:11:50;8.10;99.90
21582;DHT22;10952;50.836;4.348;2022-11-14T04:14:16;8.00;99.90
21582;DHT22;10952;50.836;4.348;2022-11-14T04:16:41;8.10;99.90
21582;DHT22;10952;50.836;4.348;2022-11-14T04:19:07;8.10;99.90
21582;DHT22;10952;50.836;4.348;2022-11-14T04:21:32;8.20;99.90
21582;DHT22;10952;50.836;4.348;2022-11-14T04:23:58;8.30;99.90
21582;DHT22;10952;50.836;4.348;2022-11-14T04:26:25;8.20;99.90
21582;DHT22;10952;50.836;4.348;2022-11-14T04:28:50;8.20;99.90
21582;DHT22;10952;50.836;4.348;2022-11-14T04:31:16;8.30;99.90
21582;DHT22;10952;50.836;4.348;2022-11-14T04:33:41;8.30;99.90
21582;DHT22;10952;50.836;4.348;2022-11-14T04:36:07;8.20;99.90
21582;DHT22;10952;50.836;4.348;2022-11-14T04:38:33;8.10;99.90
21582;DHT22;10952;50.836;4.348;2022-11-14T04:40:59;8.00;99.90
21582;DHT22;10952;50.836;4.348;2022-11-14T04:43:24;7.90;99.90
21582;DHT22;10952;50.836;4.348;2022-11-14T04:45:50;8.00;99.90
21582;DHT22;10952;50.836;4.348;2022-11-14T04:48:15;7.90;99.90
21582;DHT22;10952;50.836;4.348;2022-11-14T04:50:41;7.90;99.90
21582;DHT22;10952;50.836;4.348;2022-11-14T04:53:07;7.90;99.90
21582;DHT22;10952;50.836;4.348;2022-11-14T04:55:32;7.80;99.90
21582;DHT22;10952;50.836;4.348;2022-11-14T04:57:58;7.70;99.90
21582;DHT22;10952;50.836;4.348;2022-11-14T05:00:25;7.90;99.90
21582;DHT22;10952;50.836;4.348;2022-11-14T05:02:51;7.90;99.90
21582;DHT22;10952;50.836;4.348;2022-11-14T05:05:17;7.80;99.90
21582;DHT22;10952;50.836;4.348;2022-11-14T05:07:42;7.80;99.90
21582;DHT22;10952;50.836;4.348;2022-11-14T05:10:09;7.70;99.90
21582;DHT22;10952;50.836;4.348;2022-11-14T05:12:34;7.70;99.90
21582;DHT22;10952;50.836;4.348;2022-11-14T05:15:00;7.70;99.90
21582;DHT22;10952;50.836;4.348;2022-11-14T05:17:26;7.90;99.90
21582;DHT22;10952;50.836;4.348;2022-11-14T05:19:52;7.70;99.90
21582;DHT22;10952;50.836;4.348;2022-11-14T05:22:17;7.70;99.90
21582;DHT22;10952;50.836;4.348;2022-11-14T05:24:43;7.70;99.90
21582;DHT22;10952;50.836;4.348;2022-11-14T05:27:09;7.60;99.90
21582;DHT22;10952;50.836;4.348;2022-11-14T05:29:34;7.50;99.90
21582;DHT22;10952;50.836;4.348;2022-11-14T05:32:00;7.60;99.90
21582;DHT22;10952;50.836;4.348;2022-11-14T05:34:26;7.50;99.90
21582;DHT22;10952;50.836;4.348;2022-11-14T05:36:52;7.50;99.90
21582;DHT22;10952;50.836;4.348;2022-11-14T05:39:17;7.40;99.90
21582;DHT22;10952;50.836;4.348;2022-11-14T05:41:43;7.50;99.90
21582;DHT22;10952;50.836;4.348;2022-11-14T05:44:09;7.60;99.90
21582;DHT22;10952;50.836;4.348;2022-11-14T05:46:34;7.70;99.90
21582;DHT22;10952;50.836;4.348;2022-11-14T05:49:00;7.60;99.90
21582;DHT22;10952;50.836;4.348;2022-11-14T05:51:26;7.60;99.90
21582;DHT22;10952;50.836;4.348;2022-11-14T05:53:51;7.60;99.90
21582;DHT22;10952;50.836;4.348;2022-11-14T05:56:17;7.60;99.90
21582;DHT22;10952;50.836;4.348;2022-11-14T05:58:43;7.60;99.90
21582;DHT22;10952;50.836;4.348;2022-11-14T06:01:11;7.70;99.90
21582;DHT22;10952;50.836;4.348;2022-11-14T06:03:42;7.70;99.90
21582;DHT22;10952;50.836;4.348;2022-11-14T06:06:10;7.70;99.90
21582;DHT22;10952;50.836;4.348;2022-11-14T06:08:36;7.70;99.90
21582;DHT22;10952;50.836;4.348;2022-11-14T06:11:07;7.80;99.90
21582;DHT22;10952;50.836;4.348;2022-11-14T06:13:34;7.80;99.90
21582;DHT22;10952;50.836;4.348;2022-11-14T06:16:01;7.80;99.90
21582;DHT22;10952;50.836;4.348;2022-11-14T06:18:28;7.80;99.90
21582;DHT22;10952;50.836;4.348;2022-11-14T06:21:11;7.70;99.90
21582;DHT22;10952;50.836;4.348;2022-11-14T06:23:37;7.60;99.90
21582;DHT22;10952;50.836;4.348;2022-11-14T06:26:05;7.60;99.90
21582;DHT22;10952;50.836;4.348;2022-11-14T06:28:31;7.60;99.90
21582;DHT22;10952;50.836;4.348;2022-11-14T06:30:58;7.50;99.90
21582;DHT22;10952;50.836;4.348;2022-11-14T06:33:25;7.60;99.90
21582;DHT22;10952;50.836;4.348;2022-11-14T06:35:56;7.60;99.90
21582;DHT22;10952;50.836;4.348;2022-11-14T06:38:22;7.50;99.90
21582;DHT22;10952;50.836;4.348;2022-11-14T06:40:48;7.50;99.90
21582;DHT22;10952;50.836;4.348;2022-11-14T06:43:13;7.50;99.90
21582;DHT22;10952;50.836;4.348;2022-11-14T06:45:39;7.50;99.90
21582;DHT22;10952;50.836;4.348;2022-11-14T06:48:05;7.60;99.90
21582;DHT22;10952;50.836;4.348;2022-11-14T06:50:31;7.60;99.90
21582;DHT22;10952;50.836;4.348;2022-11-14T06:52:57;7.50;99.90
21582;DHT22;10952;50.836;4.348;2022-11-14T06:55:23;7.50;99.90
21582;DHT22;10952;50.836;4.348;2022-11-14T06:57:52;7.50;99.90
21582;DHT22;10952;50.836;4.348;2022-11-14T07:00:19;7.60;99.90
21582;DHT22;10952;50.836;4.348;2022-11-14T07:02:45;7.70;99.90
21582;DHT22;10952;50.836;4.348;2022-11-14T07:05:11;7.70;99.90
21582;DHT22;10952;50.836;4.348;2022-11-14T07:07:37;7.70;99.90
21582;DHT22;10952;50.836;4.348;2022-11-14T07:10:02;7.80;99.90
21582;DHT22;10952;50.836;4.348;2022-11-14T07:12:28;7.80;99.90
21582;DHT22;10952;50.836;4.348;2022-11-14T07:14:54;7.80;99.90
21582;DHT22;10952;50.836;4.348;2022-11-14T07:17:19;7.90;99.90
21582;DHT22;10952;50.836;4.348;2022-11-14T07:19:45;7.90;99.90
21582;DHT22;10952;50.836;4.348;2022-11-14T07:22:10;7.90;99.90
21582;DHT22;10952;50.836;4.348;2022-11-14T07:24:36;7.90;99.90
21582;DHT22;10952;50.836;4.348;2022-11-14T07:27:01;7.90;99.90
21582;DHT22;10952;50.836;4.348;2022-11-14T07:29:32;7.90;99.90
21582;DHT22;10952;50.836;4.348;2022-11-14T07:31:58;8.10;99.90
21582;DHT22;10952;50.836;4.348;2022-11-14T07:34:24;8.10;99.90
21582;DHT22;10952;50.836;4.348;2022-11-14T07:36:49;8.10;99.90
21582;DHT22;10952;50.836;4.348;2022-11-14T07:39:15;8.10;99.90
21582;DHT22;10952;50.836;4.348;2022-11-14T07:41:41;8.10;99.90
21582;DHT22;10952;50.836;4.348;2022-11-14T07:44:06;8.10;99.90
21582;DHT22;10952;50.836;4.348;2022-11-14T07:46:32;8.10;99.90
21582;DHT22;10952;50.836;4.348;2022-11-14T07:48:57;8.20;99.90
21582;DHT22;10952;50.836;4.348;2022-11-14T07:51:23;8.20;99.90
21582;DHT22;10952;50.836;4.348;2022-11-14T07:53:51;8.10;99.90
21582;DHT22;10952;50.836;4.348;2022-11-14T07:56:17;7.90;99.90
21582;DHT22;10952;50.836;4.348;2022-11-14T07:58:44;7.70;99.90
21582;DHT22;10952;50.836;4.348;2022-11-14T08:01:12;7.60;99.90
21582;DHT22;10952;50.836;4.348;2022-11-14T08:03:38;7.60;99.90
21582;DHT22;10952;50.836;4.348;2022-11-14T08:06:11;7.60;99.90
21582;DHT22;10952;50.836;4.348;2022-11-14T08:08:38;7.70;99.90
21582;DHT22;10952;50.836;4.348;2022-11-14T08:11:04;7.70;99.90
21582;DHT22;10952;50.836;4.348;2022-11-14T08:13:31;7.80;99.90
21582;DHT22;10952;50.836;4.348;2022-11-14T08:15:56;7.80;99.90
21582;DHT22;10952;50.836;4.348;2022-11-14T08:18:25;7.90;99.90
21582;DHT22;10952;50.836;4.348;2022-11-14T08:20:51;8.00;99.90
21582;DHT22;10952;50.836;4.348;2022-11-14T08:23:17;8.00;99.90
21582;DHT22;10952;50.836;4.348;2022-11-14T08:25:43;8.10;99.90
21582;DHT22;10952;50.836;4.348;2022-11-14T08:28:08;8.20;99.90
21582;DHT22;10952;50.836;4.348;2022-11-14T08:30:34;8.30;99.90
21582;DHT22;10952;50.836;4.348;2022-11-14T08:33:02;8.40;99.90
21582;DHT22;10952;50.836;4.348;2022-11-14T08:35:28;8.50;99.90
21582;DHT22;10952;50.836;4.348;2022-11-14T08:37:54;8.50;99.90
21582;DHT22;10952;50.836;4.348;2022-11-14T08:40:19;8.60;99.90
21582;DHT22;10952;50.836;4.348;2022-11-14T08:42:45;8.60;99.90
21582;DHT22;10952;50.836;4.348;2022-11-14T08:45:11;8.70;99.90
21582;DHT22;10952;50.836;4.348;2022-11-14T08:47:36;8.70;99.90
21582;DHT22;10952;50.836;4.348;2022-11-14T08:50:03;8.70;99.90
21582;DHT22;10952;50.836;4.348;2022-11-14T08:52:29;8.80;99.90
21582;DHT22;10952;50.836;4.348;2022-11-14T08:54:55;8.90;99.90
21582;DHT22;10952;50.836;4.348;2022-11-14T08:57:20;8.90;99.90
21582;DHT22;10952;50.836;4.348;2022-11-14T08:59:46;8.80;99.90
21582;DHT22;10952;50.836;4.348;2022-11-14T09:02:13;8.90;99.90
21582;DHT22;10952;50.836;4.348;2022-11-14T09:04:39;8.90;99.90
21582;DHT22;10952;50.836;4.348;2022-11-14T09:07:05;9.00;99.90
21582;DHT22;10952;50.836;4.348;2022-11-14T09:09:31;9.00;99.90
21582;DHT22;10952;50.836;4.348;2022-11-14T09:11:57;9.10;99.90
21582;DHT22;10952;50.836;4.348;2022-11-14T09:14:22;9.10;99.90
21582;DHT22;10952;50.836;4.348;2022-11-14T09:16:48;9.10;99.90
21582;DHT22;10952;50.836;4.348;2022-11-14T09:19:14;9.10;99.90
21582;DHT22;10952;50.836;4.348;2022-11-14T09:21:39;9.00;99.90
21582;DHT22;10952;50.836;4.348;2022-11-14T09:24:05;9.20;99.90
21582;DHT22;10952;50.836;4.348;2022-11-14T09:26:32;9.20;99.90
21582;DHT22;10952;50.836;4.348;2022-11-14T09:28:58;9.20;99.90
21582;DHT22;10952;50.836;4.348;2022-11-14T09:31:24;9.30;99.90
21582;DHT22;10952;50.836;4.348;2022-11-14T09:33:49;9.30;99.90
21582;DHT22;10952;50.836;4.348;2022-11-14T09:36:15;9.10;99.90
21582;DHT22;10952;50.836;4.348;2022-11-14T09:38:43;9.10;99.90
21582;DHT22;10952;50.836;4.348;2022-11-14T09:47:11;9.40;99.90
21582;DHT22;10952;50.836;4.348;2022-11-14T09:49:41;9.50;99.90
21582;DHT22;10952;50.836;4.348;2022-11-14T09:55:00;9.60;99.90
21582;DHT22;10952;50.836;4.348;2022-11-14T09:57:28;9.80;99.90
21582;DHT22;10952;50.836;4.348;2022-11-14T10:00:00;9.80;99.90
21582;DHT22;10952;50.836;4.348;2022-11-14T10:08:42;9.60;99.90
21582;DHT22;10952;50.836;4.348;2022-11-14T10:19:34;10.10;99.90
21582;DHT22;10952;50.836;4.348;2022-11-14T10:28:03;11.00;99.90
21582;DHT22;10952;50.836;4.348;2022-11-14T10:30:50;12.30;99.90
21582;DHT22;10952;50.836;4.348;2022-11-14T10:39:10;15.10;99.90
21582;DHT22;10952;50.836;4.348;2022-11-14T10:41:47;15.60;99.90
21582;DHT22;10952;50.836;4.348;2022-11-14T10:44:21;16.00;99.90
21582;DHT22;10952;50.836;4.348;2022-11-14T10:46:52;16.10;99.90
21582;DHT22;10952;50.836;4.348;2022-11-14T10:49:23;16.30;99.90
21582;DHT22;10952;50.836;4.348;2022-11-14T10:52:01;16.50;99.90
21582;DHT22;10952;50.836;4.348;2022-11-14T10:54:43;16.40;99.90
21582;DHT22;10952;50.836;4.348;2022-11-14T10:57:29;15.70;99.90
21582;DHT22;10952;50.836;4.348;2022-11-14T10:59:55;15.70;99.90
21582;DHT22;10952;50.836;4.348;2022-11-14T11:02:22;15.70;99.90
21582;DHT22;10952;50.836;4.348;2022-11-14T11:04:47;15.80;99.90
21582;DHT22;10952;50.836;4.348;2022-11-14T11:10:06;15.60;99.90
21582;DHT22;10952;50.836;4.348;2022-11-14T11:12:51;15.60;99.90
21582;DHT22;10952;50.836;4.348;2022-11-14T11:15:23;14.70;99.90
21582;DHT22;10952;50.836;4.348;2022-11-14T11:18:02;14.60;99.90
21582;DHT22;10952;50.836;4.348;2022-11-14T11:20:36;14.80;99.90
21582;DHT22;10952;50.836;4.348;2022-11-14T11:23:05;15.00;99.90
21582;DHT22;10952;50.836;4.348;2022-11-14T11:25:32;14.50;99.90
21582;DHT22;10952;50.836;4.348;2022-11-14T11:28:13;14.60;99.90
21582;DHT22;10952;50.836;4.348;2022-11-14T11:30:40;14.30;99.90
21582;DHT22;10952;50.836;4.348;2022-11-14T11:33:24;14.10;99.90
21582;DHT22;10952;50.836;4.348;2022-11-14T11:35:55;13.70;99.90
21582;DHT22;10952;50.836;4.348;2022-11-14T11:38:25;13.00;99.90
21582;DHT22;10952;50.836;4.348;2022-11-14T11:40:58;12.10;99.90
21582;DHT22;10952;50.836;4.348;2022-11-14T11:43:35;11.30;99.90
21582;DHT22;10952;50.836;4.348;2022-11-14T11:46:25;10.20;99.90
21582;DHT22;10952;50.836;4.348;2022-11-14T11:49:01;9.80;99.90
21582;DHT22;10952;50.836;4.348;2022-11-14T11:51:32;9.60;99.90
21582;DHT22;10952;50.836;4.348;2022-11-14T11:54:13;9.40;99.90
21582;DHT22;10952;50.836;4.348;2022-11-14T11:56:41;9.20;99.90
21582;DHT22;10952;50.836;4.348;2022-11-14T12:01:53;9.10;99.90
21582;DHT22;10952;50.836;4.348;2022-11-14T12:04:21;9.10;99.90
21582;DHT22;10952;50.836;4.348;2022-11-14T12:06:54;9.10;99.90
21582;DHT22;10952;50.836;4.348;2022-11-14T12:09:28;9.20;99.90
21582;DHT22;10952;50.836;4.348;2022-11-14T12:12:00;9.30;99.90
21582;DHT22;10952;50.836;4.348;2022-11-14T12:19:49;9.10;99.90
21582;DHT22;10952;50.836;4.348;2022-11-14T12:22:31;9.10;99.90
21582;DHT22;10952;50.836;4.348;2022-11-14T12:30:49;8.50;99.90
21582;DHT22;10952;50.836;4.348;2022-11-14T12:33:21;8.40;99.90
21582;DHT22;10952;50.836;4.348;2022-11-14T12:35:56;8.60;99.90
21582;DHT22;10952;50.836;4.348;2022-11-14T12:38:23;8.70;99.90
21582;DHT22;10952;50.836;4.348;2022-11-14T12:40:53;8.60;99.90
21582;DHT22;10952;50.836;4.348;2022-11-14T12:43:40;8.60;99.90
21582;DHT22;10952;50.836;4.348;2022-11-14T12:46:08;8.70;99.90
21582;DHT22;10952;50.836;4.348;2022-11-14T12:48:45;8.70;99.90
21582;DHT22;10952;50.836;4.348;2022-11-14T12:53:48;8.60;99.90
21582;DHT22;10952;50.836;4.348;2022-11-14T12:56:58;8.70;99.90
21582;DHT22;10952;50.836;4.348;2022-11-14T12:59:37;8.70;99.90
21582;DHT22;10952;50.836;4.348;2022-11-14T13:05:16;8.30;99.90
21582;DHT22;10952;50.836;4.348;2022-11-14T13:10:48;8.50;99.90
21582;DHT22;10952;50.836;4.348;2022-11-14T13:13:15;8.60;99.90
21582;DHT22;10952;50.836;4.348;2022-11-14T13:16:00;8.70;99.90
21582;DHT22;10952;50.836;4.348;2022-11-14T13:19:11;8.90;99.90
21582;DHT22;10952;50.836;4.348;2022-11-14T13:27:29;8.90;99.90
21582;DHT22;10952;50.836;4.348;2022-11-14T13:29:56;9.00;99.90
21582;DHT22;10952;50.836;4.348;2022-11-14T13:35:20;9.00;99.90
21582;DHT22;10952;50.836;4.348;2022-11-14T13:40:58;8.80;99.90
21582;DHT22;10952;50.836;4.348;2022-11-14T13:51:35;8.90;99.90
21582;DHT22;10952;50.836;4.348;2022-11-14T13:54:01;8.80;99.90
21582;DHT22;10952;50.836;4.348;2022-11-14T13:57:00;8.80;99.90
21582;DHT22;10952;50.836;4.348;2022-11-14T14:00:07;9.10;99.90
21582;DHT22;10952;50.836;4.348;2022-11-14T14:06:11;9.10;99.90
21582;DHT22;10952;50.836;4.348;2022-11-14T14:20:34;8.40;99.90
21582;DHT22;10952;50.836;4.348;2022-11-14T14:31:46;9.10;99.90
21582;DHT22;10952;50.836;4.348;2022-11-14T14:34:28;9.30;99.90
21582;DHT22;10952;50.836;4.348;2022-11-14T14:36:56;9.40;99.90
21582;DHT22;10952;50.836;4.348;2022-11-14T14:39:26;9.30;99.90
21582;DHT22;10952;50.836;4.348;2022-11-14T14:41:57;9.30;99.90
21582;DHT22;10952;50.836;4.348;2022-11-14T14:44:38;9.20;99.90
21582;DHT22;10952;50.836;4.348;2022-11-14T14:47:37;9.00;99.90
21582;DHT22;10952;50.836;4.348;2022-11-14T14:50:23;9.00;99.90
21582;DHT22;10952;50.836;4.348;2022-11-14T14:52:59;9.10;99.90
21582;DHT22;10952;50.836;4.348;2022-11-14T14:55:26;9.10;99.90
21582;DHT22;10952;50.836;4.348;2022-11-14T14:57:52;9.10;99.90
21582;DHT22;10952;50.836;4.348;2022-11-14T15:00:24;9.20;99.90
21582;DHT22;10952;50.836;4.348;2022-11-14T15:02:57;9.20;99.90
21582;DHT22;10952;50.836;4.348;2022-11-14T15:05:27;9.00;99.90
21582;DHT22;10952;50.836;4.348;2022-11-14T15:07:58;8.80;99.90
21582;DHT22;10952;50.836;4.348;2022-11-14T15:10:28;8.70;99.90
21582;DHT22;10952;50.836;4.348;2022-11-14T15:12:57;8.80;99.90
21582;DHT22;10952;50.836;4.348;2022-11-14T15:15:23;8.90;99.90
21582;DHT22;10952;50.836;4.348;2022-11-14T15:17:54;8.80;99.90
21582;DHT22;10952;50.836;4.348;2022-11-14T15:20:28;8.70;99.90
21582;DHT22;10952;50.836;4.348;2022-11-14T15:23:18;8.80;99.90
21582;DHT22;10952;50.836;4.348;2022-11-14T15:25:46;8.80;99.90
21582;DHT22;10952;50.836;4.348;2022-11-14T15:28:18;8.80;99.90
21582;DHT22;10952;50.836;4.348;2022-11-14T15:31:03;8.70;99.90
21582;DHT22;10952;50.836;4.348;2022-11-14T15:33:34;8.70;99.90
21582;DHT22;10952;50.836;4.348;2022-11-14T15:36:12;8.80;99.90
21582;DHT22;10952;50.836;4.348;2022-11-14T15:38:39;9.00;99.90
21582;DHT22;10952;50.836;4.348;2022-11-14T15:41:23;9.00;99.90
21582;DHT22;10952;50.836;4.348;2022-11-14T15:43:54;9.00;99.90
21582;DHT22;10952;50.836;4.348;2022-11-14T15:46:41;9.00;99.90
21582;DHT22;10952;50.836;4.348;2022-11-14T15:54:24;8.70;99.90
21582;DHT22;10952;50.836;4.348;2022-11-14T15:56:50;8.50;99.90
21582;DHT22;10952;50.836;4.348;2022-11-14T15:59:16;8.60;99.90
21582;DHT22;10952;50.836;4.348;2022-11-14T16:01:44;8.80;99.90
21582;DHT22;10952;50.836;4.348;2022-11-14T16:04:21;9.00;99.90
21582;DHT22;10952;50.836;4.348;2022-11-14T16:06:49;9.00;99.90
21582;DHT22;10952;50.836;4.348;2022-11-14T16:09:18;9.10;99.90
21582;DHT22;10952;50.836;4.348;2022-11-14T16:11:44;9.10;99.90
21582;DHT22;10952;50.836;4.348;2022-11-14T16:14:10;9.20;99.90
21582;DHT22;10952;50.836;4.348;2022-11-14T16:16:36;9.20;99.90
21582;DHT22;10952;50.836;4.348;2022-11-14T16:19:02;9.10;99.90
21582;DHT22;10952;50.836;4.348;2022-11-14T16:21:28;9.10;99.90
21582;DHT22;10952;50.836;4.348;2022-11-14T16:23:54;9.10;99.90
21582;DHT22;10952;50.836;4.348;2022-11-14T16:26:23;9.10;99.90
21582;DHT22;10952;50.836;4.348;2022-11-14T16:28:51;9.10;99.90
21582;DHT22;10952;50.836;4.348;2022-11-14T16:31:18;9.20;99.90
21582;DHT22;10952;50.836;4.348;2022-11-14T16:33:43;9.30;99.90
21582;DHT22;10952;50.836;4.348;2022-11-14T16:36:10;9.20;99.90
21582;DHT22;10952;50.836;4.348;2022-11-14T16:38:37;9.10;99.90
21582;DHT22;10952;50.836;4.348;2022-11-14T16:41:10;9.10;99.90
21582;DHT22;10952;50.836;4.348;2022-11-14T16:43:37;9.10;99.90
21582;DHT22;10952;50.836;4.348;2022-11-14T16:46:04;9.10;99.90
21582;DHT22;10952;50.836;4.348;2022-11-14T16:48:30;9.10;99.90
21582;DHT22;10952;50.836;4.348;2022-11-14T16:51:03;9.20;99.90
21582;DHT22;10952;50.836;4.348;2022-11-14T16:53:29;9.30;99.90
21582;DHT22;10952;50.836;4.348;2022-11-14T16:55:55;9.30;99.90
21582;DHT22;10952;50.836;4.348;2022-11-14T16:58:22;9.30;99.90
21582;DHT22;10952;50.836;4.348;2022-11-14T17:00:48;9.30;99.90
21582;DHT22;10952;50.836;4.348;2022-11-14T17:03:14;9.10;99.90
21582;DHT22;10952;50.836;4.348;2022-11-14T17:05:44;9.10;99.90
21582;DHT22;10952;50.836;4.348;2022-11-14T17:08:10;9.30;99.90
21582;DHT22;10952;50.836;4.348;2022-11-14T17:10:44;9.30;99.90
21582;DHT22;10952;50.836;4.348;2022-11-14T17:13:12;9.40;99.90
21582;DHT22;10952;50.836;4.348;2022-11-14T17:15:38;9.50;99.90
21582;DHT22;10952;50.836;4.348;2022-11-14T17:18:05;9.50;99.90
21582;DHT22;10952;50.836;4.348;2022-11-14T17:20:31;9.60;99.90
21582;DHT22;10952;50.836;4.348;2022-11-14T17:22:57;9.50;99.90
21582;DHT22;10952;50.836;4.348;2022-11-14T17:25:23;9.50;99.90
21582;DHT22;10952;50.836;4.348;2022-11-14T17:27:49;9.60;99.90
21582;DHT22;10952;50.836;4.348;2022-11-14T17:30:15;9.50;99.90
21582;DHT22;10952;50.836;4.348;2022-11-14T17:32:41;9.50;99.90
21582;DHT22;10952;50.836;4.348;2022-11-14T17:35:08;9.40;99.90
21582;DHT22;10952;50.836;4.348;2022-11-14T17:37:34;9.40;99.90
21582;DHT22;10952;50.836;4.348;2022-11-14T17:39:59;9.50;99.90
21582;DHT22;10952;50.836;4.348;2022-11-14T17:42:25;9.60;99.90
21582;DHT22;10952;50.836;4.348;2022-11-14T17:44:51;9.60;99.90